Avon, Iowa
Current Conditions -  °F | °C
As of 12:54 AM on Thursday 23 Oct 2014 (Local Time) from KDSM Reporting Station
Overcast Overcast  
Wind Chill: 56°   Ceiling: 6000
Heat Index: 56°   Visibility: 10mi
Dew Point: 45°   Wind: 0mph
Humidity: 67%   Direction: NA
Pressure: 30.12"   Gusts: NA
Location:  41.4707°N, 93.4797°W
Report Text: KDSM 230554Z 00000KT 10SM SCT036 BKN060 BKN100 OVC220 13/07 A3012 RMK AO2 LTG DSNT N SLP198 T01330072 10167 20133 401940067 55001
Loading
Personal Weather Stations






























Interactive Weather Map
Tropical Storm Tracking
New forecast layout! Learn more

10-Day Weather Forecast

Advertisements
Track Severe Weather on mobile